createdAt,value
2023-05-19T13:41:47.713Z,31.00
2023-05-19T13:44:15.917Z,27.00
2023-05-19T13:46:45.142Z,32.00
2023-05-19T13:49:13.053Z,32.00
2023-05-19T13:51:42.343Z,29.00
2023-05-19T13:54:09.442Z,32.25
2023-05-19T13:56:36.997Z,31.67
2023-05-19T13:59:04.323Z,28.50
2023-05-19T14:01:31.835Z,33.00
2023-05-19T14:03:58.622Z,33.50
2023-05-19T14:06:25.520Z,31.00
2023-05-19T14:08:52.420Z,31.00
2023-05-19T14:11:20.890Z,32.00
2023-05-19T14:13:52.510Z,29.00
2023-05-19T14:16:21.278Z,33.33
2023-05-19T14:18:48.556Z,29.00
2023-05-19T14:21:15.259Z,32.00
2023-05-19T14:23:42.174Z,34.00
2023-05-19T14:26:08.805Z,34.00
2023-05-19T14:28:35.402Z,35.00
2023-05-19T14:31:02.191Z,41.00
2023-05-19T14:33:32.779Z,44.00
2023-05-19T14:36:01.608Z,40.00
2023-05-19T14:38:29.412Z,35.50
2023-05-19T14:40:56.499Z,33.50
2023-05-19T14:43:23.214Z,35.00
2023-05-19T14:45:49.759Z,31.00
2023-05-19T14:48:16.679Z,27.00
2023-05-19T14:50:43.635Z,28.00
2023-05-19T14:53:10.355Z,24.00
2023-05-19T14:55:37.128Z,24.00
2023-05-19T14:58:07.891Z,25.00
2023-05-19T15:00:43.321Z,31.00
2023-05-19T15:03:11.207Z,30.00
2023-05-19T15:05:39.686Z,32.00
2023-05-19T15:08:06.490Z,31.00
2023-05-19T15:10:33.382Z,33.00
2023-05-19T15:13:01.115Z,31.00
2023-05-19T15:15:27.644Z,33.00
2023-05-19T15:17:54.362Z,30.50
2023-05-19T15:20:21.275Z,29.50
2023-05-19T15:22:48.208Z,31.33
2023-05-19T15:25:14.831Z,34.00
2023-05-19T15:27:41.394Z,36.00
2023-05-19T15:30:08.242Z,33.00
2023-05-19T15:32:35.030Z,31.50
2023-05-19T15:35:01.821Z,30.50
2023-05-19T15:37:28.916Z,32.00
2023-05-19T15:39:55.510Z,31.00
2023-05-19T15:44:48.518Z,34.00
2023-05-19T15:47:15.294Z,32.50
2023-05-19T15:49:42.026Z,36.00
2023-05-19T15:52:09.070Z,31.50
2023-05-19T15:54:35.809Z,34.00
2023-05-19T15:57:02.657Z,32.00
2023-05-19T15:59:29.394Z,33.00
2023-05-19T16:01:56.247Z,36.50
2023-05-19T16:04:22.941Z,33.00
2023-05-19T16:06:50.058Z,31.00
2023-05-19T16:09:16.742Z,31.00
2023-05-19T16:11:43.472Z,32.00
2023-05-19T16:14:10.029Z,31.67
2023-05-19T16:16:36.704Z,32.50
2023-05-19T16:19:03.518Z,32.50
2023-05-19T16:21:31.510Z,33.00
2023-05-19T16:23:58.276Z,32.50
2023-05-19T16:26:25.709Z,34.00
2023-05-19T16:28:52.273Z,32.50
2023-05-19T16:31:19.123Z,33.00
2023-05-19T16:33:46.104Z,31.00
2023-05-19T16:36:12.951Z,32.00
2023-05-19T16:38:39.396Z,31.00
2023-05-19T16:41:06.635Z,33.00
